This is the latest recevied weather packets stored in our database for station/object DG9MHV-10. If no packets are shown the sender has not sent any weather packets the latest 10 day(s).
| Time | Temp. | Humidity | Pressure | Rain* | Wind** | Luminosity | Snow |
|---|---|---|---|---|---|---|---|
| 1778102765 | 8.89° C | 100% | 1008.7 hPa | - | - | - | - |
| 1778101865 | 8.89° C | 100% | 1008.7 hPa | - | - | - | - |
| 1778100965 | 8.89° C | 100% | 1008.3 hPa | - | - | - | - |
| 1778100065 | 8.89° C | 100% | 1007.9 hPa | - | - | - | - |
| 1778099165 | 8.89° C | 100% | 1007.6 hPa | - | - | - | - |
| 1778098265 | 8.89° C | 100% | 1007.5 hPa | - | - | - | - |
| 1778097365 | 8.89° C | 100% | 1007.4 hPa | - | - | - | - |
| 1778096465 | 9.44° C | 100% | 1007.1 hPa | - | - | - | - |
| 1778095565 | 9.44° C | 100% | 1007 hPa | - | - | - | - |
| 1778094665 | 10° C | 100% | 1006.8 hPa | - | - | - | - |
| 1778093765 | 10° C | 100% | 1006.8 hPa | - | - | - | - |
| 1778092865 | 10.56° C | 100% | 1006.7 hPa | - | - | - | - |
| 1778091964 | 10.56° C | 100% | 1006.4 hPa | - | - | - | - |
| 1778091064 | 10.56° C | 100% | 1006.2 hPa | - | - | - | - |
| 1778090164 | 11.11° C | 100% | 1005.7 hPa | - | - | - | - |
| 1778089264 | 11.11° C | 100% | 1005.4 hPa | - | - | - | - |
| 1778088364 | 11.67° C | 100% | 1005.2 hPa | - | - | - | - |
| 1778087463 | 12.22° C | 100% | 1004.8 hPa | - | - | - | - |
| 1778086563 | 12.22° C | 100% | 1004.8 hPa | - | - | - | - |
| 1778085663 | 12.78° C | 100% | 1004.7 hPa | - | - | - | - |
| 1778084763 | 12.22° C | 100% | 1004.8 hPa | - | - | - | - |
| 1778082972 | 17.22° C | 100% | 1006.6 hPa | - | - | - | - |
| 1778082072 | 17.78° C | 100% | 1005.9 hPa | - | - | - | - |
| 1778081171 | 18.33° C | 100% | 1005.5 hPa | - | - | - | - |
| 1778080271 | 20° C | 100% | 1005 hPa | - | - | - | - |
* Rain since midnight (hover to see other rain measurements)
** Current wind speed in m/s (hover to see current wind gust speed)